Hopland, California
Current Conditions -  °F | °C
As of 11:56 PM on Saturday 22 Nov 2014 (Local Time) from KUKI Reporting Station
Clear Clear  
Wind Chill: 44°   Ceiling: Unl
Heat Index: 44°   Visibility: 9mi
Dew Point: 41°   Wind: 3mph
Humidity: 89%   Direction: 290°WNW
Pressure: 30.3"   Gusts: NA
Location:  38.97°N, 123.12°W
Report Text: KUKI 230756Z AUTO 29003KT 9SM CLR 07/05 A3030 RMK AO2 SLP258 T00670050 401780056
Loading
Personal Weather Stations






























Interactive Weather Map New forecast layout! Learn more

10-Day Weather Forecast

Advertisements
Track Severe Weather on mobile